»·PEaware :: N777KS KLGB-KSBA

N777KS :: KLGB-KSBA

FLIGHT INFORMATION

Flight Status: Arrived
Operator: Privately registered:
United States
More flights under this callsign
Pilot: Kevin S. (26378)
Aircraft: SOCATA TBM-900
(TBM9)
More flights by this aircraft type
Origin: KLGB Long Beach
United States
Destination: KSBA Santa Barbara Mun
United States
More flights between these airports :: More routes between these airports
Route: SLI SLI341R ELMOO VNY095R VNY V186 FIM V186 DEANO V27 KWANG
File this flight plan on PilotEdge
Remarks: TEC route CSTP22
Altitude:
(Current/Filed)
6,000ft
Speed:
(Current/Filed)
200kts
Departed: 30-Dec-19 07:15 PM
Arrived: 30-Dec-19 07:48 PM
Distance/Time
Traveled:
91nm/0:33
Distance/Time
To Go:
Arrived

Flight Plot

Page will automatically refresh every two minutes.

Flight plan parsing failed; only flown route is shown


Map Options




Map Legend


Flown Route
Filed Route
Departure Airport
Arrival Airport
Navaid (VOR, NDB)
Fix

Horizontal Profiles

Position Reports

Time Latitude Longitude Heading Altitude Ground
Speed
30-Dec-19 18:35 33.812113 -118.150860 89 45ft 0kts
30-Dec-19 18:36 33.812113 -118.150860 89 45ft 0kts
30-Dec-19 18:37 33.812113 -118.150860 89 45ft 0kts
30-Dec-19 18:38 33.812113 -118.150860 89 45ft 0kts
30-Dec-19 18:39 33.812113 -118.150860 89 45ft 0kts
30-Dec-19 18:40 33.812113 -118.150860 89 45ft 0kts
30-Dec-19 18:41 33.812113 -118.150860 89 45ft 0kts
30-Dec-19 18:42 33.812113 -118.150860 89 45ft 0kts
30-Dec-19 18:43 33.812113 -118.150860 89 45ft 0kts
30-Dec-19 18:44 33.812113 -118.150859 89 45ft 0kts
30-Dec-19 18:45 33.812519 -118.152293 355 45ft 0kts
30-Dec-19 18:46 33.812519 -118.152293 355 45ft 0kts
30-Dec-19 18:47 33.812519 -118.152293 355 45ft 0kts
30-Dec-19 18:48 33.812519 -118.152293 355 45ft 0kts
30-Dec-19 18:49 33.812519 -118.152293 355 45ft 0kts
30-Dec-19 18:50 33.812519 -118.152293 355 45ft 0kts
30-Dec-19 18:51 33.812519 -118.152293 355 45ft 0kts
30-Dec-19 18:52 33.812519 -118.152293 355 45ft 0kts
30-Dec-19 18:53 33.812519 -118.152293 355 45ft 0kts
30-Dec-19 18:54 33.812519 -118.152293 355 45ft 0kts
30-Dec-19 18:55 33.812519 -118.152293 355 45ft 0kts
30-Dec-19 18:56 33.812519 -118.152293 355 45ft 0kts
30-Dec-19 18:57 33.812519 -118.152293 355 45ft 0kts
30-Dec-19 18:58 33.812519 -118.152293 355 45ft 0kts
30-Dec-19 18:59 33.812519 -118.152293 355 45ft 0kts
30-Dec-19 19:00 33.812519 -118.152293 355 45ft 0kts
30-Dec-19 19:01 33.812519 -118.152293 355 45ft 0kts
30-Dec-19 19:02 33.812519 -118.152293 355 45ft 0kts
30-Dec-19 19:03 33.812519 -118.152293 355 45ft 0kts
30-Dec-19 19:04 33.812519 -118.152293 355 45ft 0kts
30-Dec-19 19:05 33.812519 -118.152293 355 45ft 0kts
30-Dec-19 19:06 33.812519 -118.152293 355 45ft 0kts
30-Dec-19 19:07 33.812519 -118.152293 355 45ft 0kts
30-Dec-19 19:08 33.812519 -118.152293 355 45ft 0kts
30-Dec-19 19:09 33.812862 -118.151727 81 45ft 16kts
30-Dec-19 19:10 33.813080 -118.148173 93 45ft 14kts
30-Dec-19 19:11 33.809106 -118.142566 134 45ft 22kts
30-Dec-19 19:12 33.806508 -118.139179 101 45ft 0kts
30-Dec-19 19:13 33.806508 -118.139083 83 45ft 0kts
30-Dec-19 19:14 33.813146 -118.145913 310 352ft 91kts
30-Dec-19 19:15 33.805494 -118.174318 212 1922ft 167kts
30-Dec-19 19:16 33.758253 -118.209381 211 3003ft 223kts
30-Dec-19 19:17 33.699549 -118.226692 131 3228ft 231kts
30-Dec-19 19:18 33.704217 -118.159553 71 4419ft 204kts
30-Dec-19 19:19 33.719377 -118.094463 74 5619ft 204kts
30-Dec-19 19:20 33.761441 -118.100462 284 5999ft 260kts
30-Dec-19 19:21 33.771826 -118.188567 281 6000ft 269kts
30-Dec-19 19:22 33.782508 -118.277827 281 6001ft 268kts
30-Dec-19 19:23 33.794428 -118.365762 281 6000ft 266kts
30-Dec-19 19:24 33.806787 -118.453893 282 6001ft 267kts
30-Dec-19 19:25 33.819612 -118.542111 282 6001ft 268kts
30-Dec-19 19:26 33.847772 -118.621195 312 5997ft 262kts
30-Dec-19 19:27 33.888063 -118.692897 304 5989ft 264kts
30-Dec-19 19:28 33.927118 -118.768211 305 5988ft 263kts
30-Dec-19 19:29 33.966014 -118.843378 306 6015ft 262kts
30-Dec-19 19:30 34.004718 -118.918379 306 6016ft 263kts
30-Dec-19 19:31 34.042076 -118.990972 307 6016ft 249kts
30-Dec-19 19:32 34.079043 -119.062568 307 6016ft 251kts
30-Dec-19 19:33 34.114784 -119.131984 307 6011ft 228kts
30-Dec-19 19:34 34.146250 -119.194590 307 6020ft 214kts
30-Dec-19 19:35 34.179216 -119.259188 307 6023ft 249kts
30-Dec-19 19:36 34.215657 -119.329409 307 5757ft 238kts
30-Dec-19 19:37 34.250489 -119.397607 306 4783ft 237kts
30-Dec-19 19:38 34.284117 -119.464383 306 3999ft 204kts
30-Dec-19 19:39 34.306899 -119.514507 298 4002ft 161kts
30-Dec-19 19:40 34.320049 -119.566083 300 3968ft 159kts
30-Dec-19 19:41 34.342093 -119.613504 308 3655ft 165kts
30-Dec-19 19:42 34.366881 -119.662627 294 2318ft 179kts
30-Dec-19 19:43 34.382648 -119.711652 299 2124ft 157kts
30-Dec-19 19:44 34.403550 -119.761771 303 2067ft 153kts
30-Dec-19 19:45 34.417299 -119.790258 316 1039ft 76kts
30-Dec-19 19:46 34.427966 -119.819598 274 556ft 91kts
30-Dec-19 19:47 34.427960 -119.841714 321 15ft 17kts
30-Dec-19 19:48 34.428934 -119.840410 87 15ft 31kts
30-Dec-19 19:49 34.428751 -119.834603 196 15ft 5kts
30-Dec-19 19:50 34.428737 -119.834608 196 15ft 0kts

Navigation Log

Ident Type
Flight plan parsing failed, navigation log unavailable